createdAt,value
2023-05-05T00:04:03.007Z,97928.88
2023-05-05T00:09:05.714Z,97884.06
2023-05-05T00:14:08.315Z,97956.56
2023-05-05T00:19:11.271Z,97793.91
2023-05-05T00:24:14.205Z,97850.94
2023-05-05T00:29:16.851Z,98091.25
2023-05-05T00:34:19.762Z,98050.25
2023-05-05T00:39:22.611Z,98062.13
2023-05-05T00:44:39.257Z,98004.41
2023-05-05T00:49:42.152Z,98035.50
2023-05-05T00:54:44.867Z,98029.41
2023-05-05T00:59:47.968Z,97776.63
2023-05-05T01:04:50.912Z,98001.63
2023-05-05T01:10:18.991Z,97944.44
2023-05-05T01:15:32.966Z,97790.50
2023-05-05T01:20:58.809Z,98043.97
2023-05-05T01:26:16.260Z,98023.19
2023-05-05T01:31:52.599Z,98029.06
2023-05-05T01:37:05.466Z,97799.56
2023-05-05T01:42:14.791Z,98041.28
2023-05-05T01:47:21.219Z,97903.13
2023-05-05T01:52:25.410Z,98034.97
2023-05-05T01:57:32.084Z,98003.47
2023-05-05T02:02:37.427Z,98033.28
2023-05-05T02:07:41.637Z,97962.94
2023-05-05T02:12:48.085Z,98027.59
2023-05-05T02:17:53.781Z,98027.72
2023-05-05T02:22:57.777Z,97907.53
2023-05-05T02:28:06.971Z,97934.88
2023-05-05T02:33:12.203Z,97861.50
2023-05-05T02:38:18.693Z,97892.88
2023-05-05T02:43:23.966Z,98004.63
2023-05-05T02:48:26.596Z,97682.81
2023-05-05T02:53:30.317Z,97949.50
2023-05-05T02:58:47.047Z,97985.66
2023-05-05T03:04:01.905Z,97725.72
2023-05-05T03:09:15.058Z,97934.06
2023-05-05T03:14:22.069Z,97974.59
2023-05-05T03:19:25.973Z,97703.03
2023-05-05T03:24:29.420Z,97948.19
2023-05-05T03:29:32.252Z,97853.63
2023-05-05T03:34:36.824Z,97991.25
2023-05-05T03:39:39.467Z,97868.69
2023-05-05T03:44:42.068Z,97704.84
2023-05-05T03:49:44.631Z,97684.91
2023-05-05T03:54:47.469Z,97636.84
2023-05-05T03:59:50.505Z,97780.03
2023-05-05T04:04:53.352Z,97653.94
2023-05-05T04:09:57.272Z,97849.91
2023-05-05T04:15:00.084Z,97945.22
2023-05-05T04:20:03.930Z,97983.94
2023-05-05T04:25:07.604Z,98005.56
2023-05-05T04:30:16.107Z,97876.25
2023-05-05T04:35:18.871Z,97800.25
2023-05-05T04:40:21.959Z,97985.38
2023-05-05T04:45:24.734Z,97991.06
2023-05-05T04:50:27.818Z,97991.75
2023-05-05T04:55:40.248Z,97806.47
2023-05-05T05:00:42.878Z,98040.63
2023-05-05T05:05:45.595Z,97871.63
2023-05-05T05:10:58.109Z,97929.47
2023-05-05T05:16:01.968Z,97974.28
2023-05-05T05:21:04.722Z,97916.91
2023-05-05T05:26:07.619Z,97925.94
2023-05-05T05:31:10.929Z,97971.75
2023-05-05T05:36:13.987Z,97907.25
2023-05-05T05:41:16.782Z,97997.28
2023-05-05T05:46:20.479Z,97954.78
2023-05-05T05:51:23.309Z,97987.13
2023-05-05T05:56:25.890Z,97984.66
2023-05-05T06:01:28.411Z,97918.28
2023-05-05T06:06:31.046Z,97830.34
2023-05-05T06:11:35.754Z,97778.88
2023-05-05T06:16:38.582Z,97986.97
2023-05-05T06:21:52.011Z,97915.91
2023-05-05T06:26:54.688Z,97850.78
2023-05-05T06:31:58.376Z,97965.72
2023-05-05T06:37:00.986Z,97723.88
2023-05-05T06:42:14.176Z,97883.53
2023-05-05T06:47:17.040Z,97883.53
2023-05-05T06:52:19.592Z,97959.19
2023-05-05T06:57:22.384Z,97936.47
2023-05-05T07:02:26.830Z,97920.94
2023-05-05T07:07:29.801Z,97798.75
2023-05-05T07:12:44.713Z,97890.16
2023-05-05T07:17:47.335Z,97869.88
2023-05-05T07:22:49.937Z,97827.81
2023-05-05T07:27:52.620Z,97789.28
2023-05-05T07:32:56.024Z,97941.09
2023-05-05T07:38:02.748Z,97886.28
2023-05-05T07:43:06.186Z,97781.03
2023-05-05T07:48:09.537Z,97935.19
2023-05-05T07:53:22.912Z,97706.44
2023-05-05T07:58:25.635Z,97818.25
2023-05-05T08:03:28.832Z,97763.38
2023-05-05T08:08:31.718Z,97891.38
2023-05-05T08:13:34.982Z,97841.41
2023-05-05T08:18:39.205Z,97898.09
2023-05-05T08:23:41.649Z,97945.16
2023-05-05T08:28:44.192Z,97937.28
2023-05-05T08:33:46.770Z,97875.47
2023-05-05T08:38:49.474Z,97904.91
2023-05-05T08:43:51.996Z,97925.25
2023-05-05T08:48:56.444Z,97909.44
2023-05-05T08:54:03.656Z,97895.44
2023-05-05T08:59:07.001Z,97910.56
2023-05-05T09:04:10.286Z,97930.38
2023-05-05T09:09:13.533Z,97924.81
2023-05-05T09:14:16.163Z,97914.72
2023-05-05T09:19:29.165Z,97926.25
2023-05-05T09:24:31.802Z,97932.28
2023-05-05T09:29:34.379Z,97898.97
2023-05-05T09:34:40.060Z,97914.78
2023-05-05T09:39:55.158Z,97875.22
2023-05-05T09:54:30.277Z,97912.34
2023-05-05T09:59:33.581Z,97903.31
2023-05-05T10:04:36.951Z,97892.44
2023-05-05T10:09:45.835Z,97904.91
2023-05-05T10:19:40.872Z,97900.56
2023-05-05T10:24:51.625Z,97902.25
2023-05-05T10:30:08.279Z,97901.53
2023-05-05T10:35:15.117Z,97869.31
2023-05-05T10:40:23.183Z,97798.59
2023-05-05T10:45:26.758Z,97648.06
2023-05-05T10:50:31.616Z,97873.19
2023-05-05T10:56:00.522Z,97857.25
2023-05-05T11:06:10.233Z,97847.66
2023-05-05T11:11:14.006Z,97825.66
2023-05-05T11:16:45.134Z,97638.31
2023-05-05T11:22:01.595Z,97846.59
2023-05-05T11:27:05.184Z,97653.09
2023-05-05T11:32:12.730Z,97809.06
2023-05-05T11:37:19.675Z,97722.81
2023-05-05T11:42:30.873Z,97829.22
2023-05-05T11:47:34.351Z,97773.34
2023-05-05T11:52:37.809Z,97820.00
2023-05-05T11:57:41.417Z,97788.94
2023-05-05T12:02:44.957Z,97808.88
2023-05-05T12:07:48.997Z,97596.34
2023-05-05T12:12:55.203Z,97745.47
2023-05-05T12:18:02.137Z,97564.44
2023-05-05T12:23:06.413Z,97802.69
2023-05-05T12:28:19.880Z,97679.31
2023-05-05T12:33:29.826Z,97558.72
2023-05-05T12:38:33.198Z,97809.66
2023-05-05T12:43:36.717Z,97775.56
2023-05-05T12:48:47.170Z,97796.44
2023-05-05T12:54:12.919Z,97787.06
2023-05-05T12:59:22.231Z,97781.94
2023-05-05T13:04:49.170Z,97666.91
2023-05-05T13:09:52.504Z,97650.53
2023-05-05T13:14:55.905Z,97683.81
2023-05-05T13:19:59.181Z,97518.91
2023-05-05T13:25:02.658Z,97760.31
2023-05-05T13:30:07.360Z,97756.81
2023-05-05T13:35:13.318Z,97753.25
2023-05-05T13:40:18.658Z,97659.47
2023-05-05T13:45:21.279Z,97500.06
2023-05-05T13:50:24.963Z,97465.94
2023-05-05T13:55:28.833Z,97745.78
2023-05-05T14:00:41.423Z,97756.75
2023-05-05T14:05:44.179Z,97744.19
2023-05-05T14:10:47.780Z,97445.88
2023-05-05T14:15:53.399Z,97739.72
2023-05-05T14:20:57.029Z,97711.59
2023-05-05T14:26:10.020Z,97738.00
2023-05-05T14:31:12.768Z,97702.31
2023-05-05T14:36:15.373Z,97727.78
2023-05-05T14:41:17.873Z,97722.44
2023-05-05T14:46:20.586Z,97719.50
2023-05-05T14:51:25.616Z,97672.09
2023-05-05T14:56:29.074Z,97413.56
2023-05-05T15:01:31.745Z,97674.38
2023-05-05T15:06:34.278Z,97598.34
2023-05-05T15:11:36.815Z,97722.22
2023-05-05T15:16:49.294Z,97670.69
2023-05-05T15:21:54.609Z,97538.78
2023-05-05T15:26:57.211Z,97523.13
2023-05-05T15:32:00.034Z,97638.50
2023-05-05T15:37:03.997Z,97725.72
2023-05-05T15:42:07.931Z,97590.03
2023-05-05T15:47:20.469Z,97625.41
2023-05-05T15:52:23.174Z,97632.44
2023-05-05T15:57:25.926Z,97591.00
2023-05-05T16:02:28.689Z,97706.34
2023-05-05T16:07:31.428Z,97487.59
2023-05-05T16:12:33.969Z,97696.44
2023-05-05T16:17:46.958Z,97712.59
2023-05-05T16:22:49.520Z,97488.81
2023-05-05T16:27:52.926Z,97712.94
2023-05-05T16:33:05.619Z,97571.09
2023-05-05T16:38:08.718Z,97702.13
2023-05-05T16:43:11.290Z,97372.03
2023-05-05T16:48:15.382Z,97698.25
2023-05-05T16:53:18.009Z,97413.84
2023-05-05T16:58:21.518Z,97539.44
2023-05-05T17:03:24.365Z,97693.31
2023-05-05T17:08:26.940Z,97667.00
2023-05-05T17:13:29.629Z,97626.44
2023-05-05T17:18:37.973Z,97620.50
2023-05-05T17:23:40.647Z,97687.41
2023-05-05T17:28:43.681Z,97611.56
2023-05-05T17:33:56.376Z,97616.38
2023-05-05T17:38:59.017Z,97714.22
2023-05-05T17:44:02.388Z,97689.47
2023-05-05T17:49:05.115Z,97678.84
2023-05-05T17:54:07.654Z,97514.47
2023-05-05T17:59:12.463Z,97578.63
2023-05-05T18:04:14.947Z,97507.09
2023-05-05T18:09:26.148Z,97421.13
2023-05-05T18:14:28.704Z,97570.78
2023-05-05T18:19:31.392Z,97726.31
2023-05-05T18:24:33.959Z,97595.25
2023-05-05T18:29:37.159Z,97745.16
2023-05-05T18:34:39.672Z,97743.38
2023-05-05T18:39:43.912Z,97551.53
2023-05-05T18:44:46.703Z,97672.91
2023-05-05T18:49:49.251Z,97789.09
2023-05-05T18:54:51.833Z,97598.25
2023-05-05T18:59:54.451Z,97652.88
2023-05-05T19:04:57.372Z,97461.97
2023-05-05T19:10:10.877Z,97454.47
2023-05-05T19:15:28.431Z,97604.75
2023-05-05T19:20:32.550Z,97797.53
2023-05-05T19:25:35.478Z,97697.22
2023-05-05T19:30:38.167Z,97680.41
2023-05-05T19:35:40.899Z,97784.13
2023-05-05T19:40:46.863Z,97735.88
2023-05-05T19:45:54.490Z,97752.22
2023-05-05T19:50:57.350Z,97765.97
2023-05-05T19:56:10.627Z,97670.47
2023-05-05T20:01:13.165Z,97631.47
2023-05-05T20:06:15.751Z,97694.09
2023-05-05T20:11:18.614Z,97706.50
2023-05-05T20:16:22.360Z,97671.97
2023-05-05T20:21:25.641Z,97717.47
2023-05-05T20:26:28.308Z,97724.81
2023-05-05T20:31:31.069Z,97622.31
2023-05-05T20:36:41.746Z,97611.22
2023-05-05T20:41:44.450Z,97603.63
2023-05-05T20:46:47.112Z,97739.94
2023-05-05T20:51:49.781Z,97581.19
2023-05-05T20:57:03.844Z,97454.16
2023-05-05T21:02:06.678Z,97745.16
2023-05-05T21:07:09.312Z,97523.75
2023-05-05T21:12:12.106Z,97736.94
2023-05-05T21:17:14.654Z,97756.91
2023-05-05T21:22:17.369Z,97695.94
2023-05-05T21:27:20.260Z,97644.69
2023-05-05T21:32:23.195Z,97658.16
2023-05-05T21:37:25.897Z,97557.91
2023-05-05T21:42:31.194Z,97762.66
2023-05-05T21:47:43.794Z,97695.69
2023-05-05T21:52:56.606Z,97518.47
2023-05-05T21:58:00.392Z,97729.53
2023-05-05T22:03:03.222Z,97750.19
2023-05-05T22:08:05.886Z,97681.44
2023-05-05T22:13:08.444Z,97761.19
2023-05-05T22:18:21.026Z,97659.56
2023-05-05T22:23:23.658Z,97677.50
2023-05-05T22:28:26.191Z,97452.06
2023-05-05T22:33:39.485Z,97732.84
2023-05-05T22:38:42.160Z,97668.19
2023-05-05T22:43:45.048Z,97709.25
2023-05-05T22:48:47.660Z,97713.34
2023-05-05T22:53:50.300Z,97649.53
2023-05-05T22:58:52.889Z,97555.19
2023-05-05T23:03:55.528Z,97721.72
2023-05-05T23:08:58.297Z,97653.25
2023-05-05T23:14:00.868Z,97715.97
2023-05-05T23:19:04.110Z,97704.91
2023-05-05T23:24:07.280Z,97681.97
2023-05-05T23:29:20.360Z,97713.22
2023-05-05T23:34:22.924Z,97697.81
2023-05-05T23:39:25.489Z,97686.34
2023-05-05T23:44:28.526Z,97697.00
2023-05-05T23:49:31.137Z,97557.28
2023-05-05T23:54:34.308Z,97612.97
2023-05-05T23:59:36.978Z,97692.41
